Time;durP1;ratioP1;P1;durP2;ratioP2;P2;SDS_P1;SDS_P2;PMS_P1;PMS_P2;Temp;Humidity;BMP_temperature;BMP_pressure;BME280_temperature;BME280_humidity;BME280_pressure;Samples;Min_cycle;Max_cycle;Signal;HPM_P1;HPM_P2
2021/12/25 00:00:16;;;;;;;10.65;1.48;;;-0.60;99.90;;;;;;5060779;28;102151;-70
2021/12/25 00:02:43;;;;;;;8.70;1.30;;;-0.60;99.90;;;;;;5049459;28;20041;-70
2021/12/25 00:05:11;;;;;;;11.55;1.33;;;-0.70;99.90;;;;;;5030461;28;109309;-70
2021/12/25 00:07:38;;;;;;;12.32;2.03;;;-0.70;99.90;;;;;;5068168;28;20063;-70
2021/12/25 00:10:07;;;;;;;8.48;1.35;;;-0.70;99.90;;;;;;5051310;28;276250;-69
2021/12/25 00:12:33;;;;;;;10.20;1.45;;;-0.80;99.90;;;;;;5058925;28;20056;-68
2021/12/25 00:15:00;;;;;;;8.25;1.30;;;-0.80;99.90;;;;;;5053043;28;20063;-69
2021/12/25 00:17:26;;;;;;;7.22;1.10;;;-0.80;99.90;;;;;;5061842;28;20087;-70
2021/12/25 00:19:53;;;;;;;7.65;1.38;;;-0.90;99.90;;;;;;5047909;28;260347;-69
2021/12/25 00:22:21;;;;;;;14.55;1.60;;;-0.90;99.90;;;;;;5069903;28;20428;-69
2021/12/25 00:24:48;;;;;;;8.43;1.40;;;-0.90;99.90;;;;;;5061044;28;227602;-70
2021/12/25 00:29:56;;;;;;;12.02;1.55;;;-0.90;99.90;;;;;;5043178;28;137536;-69
2021/12/25 00:34:50;;;;;;;7.25;1.25;;;-1.00;99.90;;;;;;5049219;28;264998;-69
2021/12/25 00:37:17;;;;;;;9.95;1.10;;;-1.10;99.90;;;;;;5060219;28;20049;-69
2021/12/25 00:39:43;;;;;;;9.60;1.27;;;-1.10;99.90;;;;;;5044700;28;158520;-68
2021/12/25 00:42:10;;;;;;;7.63;1.10;;;-1.10;99.90;;;;;;5061709;28;20048;-70
2021/12/25 00:44:37;;;;;;;7.35;1.20;;;-1.20;99.90;;;;;;5030779;28;84329;-68
2021/12/25 00:47:04;;;;;;;7.47;1.20;;;-1.20;99.90;;;;;;5056930;28;20421;-69
2021/12/25 00:49:31;;;;;;;7.38;0.95;;;-1.20;99.90;;;;;;5038977;28;273408;-70
2021/12/25 00:51:57;;;;;;;6.88;1.33;;;-1.30;99.90;;;;;;5044074;28;20064;-69
2021/12/25 00:54:24;;;;;;;9.90;0.90;;;-1.30;99.90;;;;;;5044616;28;253021;-69
2021/12/25 00:56:51;;;;;;;4.05;0.80;;;-1.30;99.90;;;;;;5059318;28;20048;-69
2021/12/25 00:59:17;;;;;;;7.47;0.98;;;-1.40;99.90;;;;;;5042885;28;262668;-69
2021/12/25 01:01:44;;;;;;;7.78;1.45;;;-1.40;99.90;;;;;;5037490;28;20048;-69
2021/12/25 01:04:10;;;;;;;5.25;0.70;;;-1.40;99.90;;;;;;5028085;28;266879;-70
2021/12/25 01:06:36;;;;;;;5.40;0.90;;;-1.50;99.90;;;;;;5060983;28;20053;-68
2021/12/25 01:09:03;;;;;;;6.45;0.95;;;-1.50;99.90;;;;;;5057189;28;20049;-69
2021/12/25 01:11:31;;;;;;;5.57;0.90;;;-1.50;99.90;;;;;;5040712;28;277135;-69
2021/12/25 01:14:05;;;;;;;4.22;0.80;;;-1.50;99.90;;;;;;5056763;28;20048;-69
2021/12/25 01:24:41;;;;;;;7.03;0.95;;;-1.70;99.90;;;;;;5037120;28;262511;-69
2021/12/25 01:29:49;;;;;;;6.65;0.90;;;-1.80;99.90;;;;;;5042367;28;278783;-69
2021/12/25 01:35:17;;;;;;;8.30;0.90;;;-1.80;99.90;;;;;;5045202;28;120742;-70
2021/12/25 01:38:08;;;;;;;6.22;0.80;;;-1.80;99.90;;;;;;5057095;28;20053;-69
2021/12/25 01:48:39;;;;;;;6.20;0.93;;;-2.00;99.90;;;;;;5067021;28;20043;-69
2021/12/25 01:51:06;;;;;;;6.30;1.00;;;-2.00;99.90;;;;;;5041028;28;270404;-70
2021/12/25 01:53:32;;;;;;;7.63;1.02;;;-2.10;99.90;;;;;;5040951;28;20265;-68
2021/12/25 01:56:00;;;;;;;8.48;1.10;;;-2.10;99.90;;;;;;5039398;28;260924;-69
2021/12/25 01:58:26;;;;;;;7.80;1.10;;;-2.10;99.90;;;;;;5061418;28;20056;-69
2021/12/25 02:00:56;;;;;;;7.88;0.80;;;-2.10;99.90;;;;;;5054843;28;20052;-69
2021/12/25 02:03:26;;;;;;;6.40;1.00;;;-2.10;99.90;;;;;;5064727;28;20037;-68
2021/12/25 02:05:52;;;;;;;6.88;1.08;;;-2.20;99.90;;;;;;5043934;28;265636;-69
2021/12/25 02:08:19;;;;;;;8.90;1.00;;;-2.20;99.90;;;;;;5058306;28;20051;-69
2021/12/25 02:10:45;;;;;;;6.97;1.27;;;-2.20;99.90;;;;;;5036153;28;20060;-69
2021/12/25 02:13:12;;;;;;;6.22;1.10;;;-2.30;99.90;;;;;;5056710;28;20067;-70
2021/12/25 02:15:43;;;;;;;11.30;1.73;;;-2.30;99.90;;;;;;5045189;28;69093;-68
2021/12/25 02:20:46;;;;;;;6.57;0.93;;;-2.30;99.90;;;;;;5050832;28;268065;-70
2021/12/25 02:23:16;;;;;;;8.70;1.10;;;-2.40;99.90;;;;;;5061705;28;20048;-70
2021/12/25 02:25:43;;;;;;;9.18;0.93;;;-2.40;99.90;;;;;;5042044;28;191794;-70
2021/12/25 02:28:11;;;;;;;10.63;1.10;;;-2.40;99.90;;;;;;5063254;28;20371;-69
2021/12/25 02:30:37;;;;;;;6.80;1.00;;;-2.40;99.90;;;;;;5052031;28;256863;-69
2021/12/25 02:33:03;;;;;;;8.65;1.35;;;-2.50;99.90;;;;;;5057522;28;20049;-69
2021/12/25 02:35:30;;;;;;;7.13;1.20;;;-2.50;99.90;;;;;;5048992;28;262025;-69
2021/12/25 02:37:57;;;;;;;4.50;0.80;;;-2.50;99.90;;;;;;5057691;28;20056;-70
2021/12/25 02:40:24;;;;;;;8.15;1.10;;;-2.50;99.90;;;;;;5038227;28;276895;-71
2021/12/25 02:42:50;;;;;;;7.90;1.10;;;-2.60;99.90;;;;;;5055469;28;20045;-69
2021/12/25 02:45:19;;;;;;;6.30;1.10;;;-2.60;99.90;;;;;;5047086;28;258445;-69
2021/12/25 02:47:47;;;;;;;5.60;0.80;;;-2.60;99.90;;;;;;5060883;28;20056;-70
2021/12/25 02:50:22;;;;;;;5.22;0.90;;;-2.60;99.90;;;;;;5046614;28;276039;-69
2021/12/25 02:52:49;;;;;;;5.35;1.00;;;-2.70;99.90;;;;;;5055559;28;20302;-70
2021/12/25 02:55:15;;;;;;;4.88;0.90;;;-2.70;99.90;;;;;;5044530;28;261785;-69
2021/12/25 02:57:41;;;;;;;8.57;0.98;;;-2.70;99.90;;;;;;5059306;28;20056;-71
2021/12/25 03:00:08;;;;;;;8.73;1.15;;;-2.70;99.90;;;;;;5036203;28;235616;-69
2021/12/25 03:02:35;;;;;;;8.18;1.00;;;-2.70;99.90;;;;;;5053957;28;20474;-69
2021/12/25 03:05:01;;;;;;;6.22;1.00;;;-2.80;99.90;;;;;;5026439;28;192069;-70
2021/12/25 03:07:27;;;;;;;7.28;0.98;;;-2.80;99.90;;;;;;5064909;28;20063;-69
2021/12/25 03:09:53;;;;;;;6.45;1.10;;;-2.80;99.90;;;;;;5045810;28;267352;-71
2021/12/25 03:12:29;;;;;;;5.03;1.00;;;-2.80;99.90;;;;;;5037825;28;20447;-69
2021/12/25 03:15:12;;;;;;;5.55;0.85;;;-2.90;99.90;;;;;;5048960;28;38552;-70
2021/12/25 03:17:38;;;;;;;6.25;1.00;;;-2.90;99.90;;;;;;5061336;28;20363;-70
2021/12/25 03:20:07;;;;;;;4.70;0.90;;;-2.90;99.90;;;;;;5045474;28;114441;-70
2021/12/25 03:22:34;;;;;;;5.35;0.80;;;-3.00;99.90;;;;;;5055653;28;20057;-69
2021/12/25 03:25:00;;;;;;;6.57;1.00;;;-3.00;99.90;;;;;;5046529;28;264369;-70
2021/12/25 03:27:26;;;;;;;5.82;0.90;;;-3.00;99.90;;;;;;5057849;28;20052;-70
2021/12/25 03:29:52;;;;;;;6.22;1.10;;;-3.00;99.90;;;;;;5040336;28;83543;-71
2021/12/25 03:32:19;;;;;;;4.35;0.90;;;-3.00;99.90;;;;;;5045085;28;20052;-69
2021/12/25 03:34:45;;;;;;;4.40;0.90;;;-3.10;99.90;;;;;;5043445;28;252343;-68
2021/12/25 03:37:11;;;;;;;5.78;1.08;;;-3.10;99.90;;;;;;5064372;28;20056;-69
2021/12/25 03:39:37;;;;;;;5.13;0.80;;;-3.10;99.90;;;;;;5038591;28;262736;-70
2021/12/25 03:42:04;;;;;;;5.57;1.13;;;-3.10;99.90;;;;;;5058224;28;20445;-69
2021/12/25 03:44:32;;;;;;;7.18;1.10;;;-3.10;99.90;;;;;;5025826;28;261890;-68
2021/12/25 03:47:03;;;;;;;6.25;1.00;;;-3.20;99.90;;;;;;5045953;28;20063;-70
2021/12/25 03:53:07;;;;;;;5.32;1.00;;;-3.20;99.90;;;;;;5046699;28;274859;-71
2021/12/25 03:57:56;;;;;;;5.93;0.90;;;-3.30;99.90;;;;;;5057020;28;20059;-70
2021/12/25 04:00:29;;;;;;;6.82;0.88;;;-3.30;99.90;;;;;;5054119;28;48966;-69
2021/12/25 04:03:00;;;;;;;5.07;0.80;;;-3.30;99.90;;;;;;5061681;28;20060;-70
2021/12/25 04:05:30;;;;;;;4.63;0.90;;;-3.30;99.90;;;;;;5014198;22;172107;-71
2021/12/25 04:08:11;;;;;;;7.32;1.15;;;-3.30;99.90;;;;;;4986014;28;20519;-69
2021/12/25 04:10:41;;;;;;;6.32;1.30;;;-3.40;99.90;;;;;;4973433;28;135265;-70
2021/12/25 04:13:13;;;;;;;7.32;1.10;;;-3.40;99.90;;;;;;4984409;28;20065;-70
2021/12/25 04:15:40;;;;;;;5.00;0.90;;;-3.40;99.90;;;;;;4979821;28;264505;-70
2021/12/25 04:18:06;;;;;;;4.90;0.90;;;-3.40;99.90;;;;;;4988603;28;20050;-70
2021/12/25 04:20:33;;;;;;;6.77;1.03;;;-3.40;99.90;;;;;;4966943;28;266300;-71
2021/12/25 04:23:06;;;;;;;4.40;0.90;;;-3.50;99.90;;;;;;4980474;28;20526;-71
2021/12/25 04:25:34;;;;;;;8.02;1.13;;;-3.50;99.90;;;;;;4984467;28;255389;-71
2021/12/25 04:28:10;;;;;;;5.73;0.97;;;-3.50;99.90;;;;;;4988404;28;20511;-70
2021/12/25 04:31:28;;;;;;;5.30;0.97;;;-3.50;99.90;;;;;;4991823;28;76653;-70
2021/12/25 04:42:46;;;;;;;5.07;0.90;;;-3.50;99.90;;;;;;5000400;28;20043;-70
2021/12/25 04:50:23;;;;;;;7.80;0.90;;;-3.70;99.90;;;;;;4977481;28;23104;-70
2021/12/25 05:05:55;;;;;;;5.57;0.97;;;-3.80;99.90;;;;;;4954170;28;209016;-70
2021/12/25 05:08:21;;;;;;;5.93;0.90;;;-3.70;99.90;;;;;;4987825;28;20431;-70
2021/12/25 05:10:48;;;;;;;5.00;1.00;;;-3.70;99.90;;;;;;4983514;28;257130;-70
2021/12/25 05:13:14;;;;;;;5.43;0.90;;;-3.70;99.90;;;;;;4985519;28;20050;-70
2021/12/25 05:15:40;;;;;;;4.50;0.90;;;-3.70;99.90;;;;;;4980035;28;33609;-70
2021/12/25 05:18:06;;;;;;;9.13;1.00;;;-3.70;99.90;;;;;;4985174;28;20046;-70
2021/12/25 05:20:32;;;;;;;5.93;0.90;;;-3.80;99.90;;;;;;4977070;28;265938;-70
2021/12/25 05:22:58;;;;;;;6.37;1.00;;;-3.80;99.90;;;;;;4988688;28;20041;-70
2021/12/25 05:25:24;;;;;;;4.53;0.80;;;-3.80;99.90;;;;;;4958536;28;93148;-70
2021/12/25 05:27:50;;;;;;;3.80;0.80;;;-3.80;99.90;;;;;;4974461;28;20438;-70
2021/12/25 05:30:18;;;;;;;5.20;0.73;;;-3.80;99.90;;;;;;4973902;28;195072;-70
2021/12/25 05:32:45;;;;;;;7.50;0.80;;;-3.80;99.90;;;;;;4969797;28;20439;-70
2021/12/25 05:35:11;;;;;;;4.73;0.80;;;-3.80;99.90;;;;;;4969664;28;258555;-70
2021/12/25 05:37:38;;;;;;;6.77;1.13;;;-3.80;99.90;;;;;;4983943;28;20053;-70
2021/12/25 05:40:05;;;;;;;7.70;0.80;;;-3.80;99.90;;;;;;4981276;28;263038;-70
2021/12/25 05:42:31;;;;;;;4.67;0.90;;;-3.90;99.90;;;;;;4992157;28;20053;-70
2021/12/25 05:44:57;;;;;;;6.13;1.17;;;-3.90;99.90;;;;;;4975746;28;119315;-71
2021/12/25 05:47:23;;;;;;;6.43;0.90;;;-3.90;99.90;;;;;;4995799;28;20046;-71
2021/12/25 05:49:49;;;;;;;4.78;1.00;;;-3.90;99.90;;;;;;4975069;28;142462;-71
2021/12/25 05:52:16;;;;;;;4.43;0.73;;;-4.00;99.90;;;;;;5001782;28;20064;-71
2021/12/25 05:54:42;;;;;;;4.67;0.80;;;-4.00;99.90;;;;;;4972609;28;219474;-71
2021/12/25 05:57:08;;;;;;;5.90;1.00;;;-4.00;99.90;;;;;;4998347;28;20045;-71
2021/12/25 05:59:35;;;;;;;5.20;0.77;;;-4.00;99.90;;;;;;4998483;28;259383;-73
2021/12/25 06:02:01;;;;;;;5.33;0.90;;;-4.00;99.90;;;;;;5019355;28;20042;-72
2021/12/25 06:04:28;;;;;;;5.07;0.97;;;-4.00;99.90;;;;;;4984062;28;258803;-72
2021/12/25 06:06:54;;;;;;;3.13;0.70;;;-4.00;99.90;;;;;;5015580;28;20051;-71
2021/12/25 06:09:20;;;;;;;6.27;0.90;;;-4.00;99.90;;;;;;4974192;28;263444;-72
2021/12/25 06:11:47;;;;;;;3.57;0.80;;;-4.00;99.90;;;;;;4986605;28;20050;-72
2021/12/25 06:14:19;;;;;;;7.40;1.00;;;-4.00;99.90;;;;;;4981296;28;239724;-72
2021/12/25 06:16:47;;;;;;;6.70;0.90;;;-4.00;99.90;;;;;;4971163;28;20058;-72
2021/12/25 06:19:13;;;;;;;6.90;1.43;;;-4.00;99.90;;;;;;4966058;28;257755;-71
2021/12/25 06:21:40;;;;;;;4.50;0.70;;;-4.10;99.90;;;;;;4985309;28;20046;-72
2021/12/25 06:24:06;;;;;;;4.00;0.80;;;-4.10;99.90;;;;;;4984210;28;20050;-72
2021/12/25 06:26:34;;;;;;;6.73;0.80;;;-4.10;99.90;;;;;;4955125;28;67199;-72
2021/12/25 06:29:00;;;;;;;4.97;0.90;;;-4.20;99.90;;;;;;4982562;28;20530;-72
2021/12/25 06:31:26;;;;;;;7.43;0.93;;;-4.20;99.90;;;;;;4977942;28;27647;-72
2021/12/25 06:33:52;;;;;;;7.10;0.80;;;-4.20;99.90;;;;;;4984562;28;20082;-72
2021/12/25 06:36:19;;;;;;;5.83;1.00;;;-4.20;99.90;;;;;;4970917;28;28241;-70
2021/12/25 06:38:45;;;;;;;5.10;1.00;;;-4.30;99.90;;;;;;4984328;28;20098;-72
2021/12/25 06:41:12;;;;;;;7.60;1.03;;;-4.30;99.90;;;;;;4956165;28;245010;-72
2021/12/25 06:43:39;;;;;;;8.80;0.93;;;-4.40;99.90;;;;;;4985318;28;20047;-72
2021/12/25 06:46:05;;;;;;;5.20;0.87;;;-4.40;99.90;;;;;;4971564;28;208230;-72
2021/12/25 06:48:31;;;;;;;7.63;0.90;;;-4.40;99.90;;;;;;4987008;28;20054;-71
2021/12/25 06:50:57;;;;;;;4.60;0.90;;;-4.50;99.90;;;;;;4981874;28;256935;-71
2021/12/25 06:53:24;;;;;;;5.80;0.97;;;-4.50;99.90;;;;;;4985360;28;20058;-71
2021/12/25 06:55:50;;;;;;;4.23;0.73;;;-4.50;99.90;;;;;;4974617;28;92106;-72
2021/12/25 06:58:16;;;;;;;5.30;0.90;;;-4.60;99.90;;;;;;4982745;28;20318;-72
2021/12/25 07:00:42;;;;;;;5.57;0.97;;;-4.60;99.90;;;;;;4969305;28;111572;-72
2021/12/25 07:03:08;;;;;;;5.90;1.00;;;-4.60;99.90;;;;;;4984986;28;20488;-72
2021/12/25 07:05:34;;;;;;;7.13;0.97;;;-4.60;99.90;;;;;;4961209;28;177343;-73
2021/12/25 07:08:01;;;;;;;6.40;1.03;;;-4.60;99.90;;;;;;4979687;28;20058;-72
2021/12/25 07:10:27;;;;;;;4.23;0.80;;;-4.60;99.90;;;;;;4973447;28;263044;-72
2021/12/25 07:12:53;;;;;;;6.77;0.90;;;-4.70;99.90;;;;;;4986246;28;20054;-72
2021/12/25 07:15:20;;;;;;;4.47;0.73;;;-4.70;99.90;;;;;;4969468;28;256676;-72
2021/12/25 07:17:46;;;;;;;6.30;0.90;;;-4.70;99.90;;;;;;4993332;28;20490;-72
2021/12/25 07:20:13;;;;;;;4.20;0.70;;;-4.70;99.90;;;;;;4972400;28;43508;-72
2021/12/25 07:22:39;;;;;;;5.00;0.90;;;-4.70;99.90;;;;;;4973463;28;20459;-72
2021/12/25 07:25:07;;;;;;;4.63;0.80;;;-4.70;99.90;;;;;;4965437;28;262570;-72
2021/12/25 07:27:33;;;;;;;6.67;0.90;;;-4.80;99.90;;;;;;4986258;28;20069;-72
2021/12/25 07:30:02;;;;;;;6.47;1.03;;;-4.70;99.90;;;;;;4982143;28;20484;-72
2021/12/25 07:32:28;;;;;;;6.03;1.10;;;-4.80;99.90;;;;;;4995696;28;20046;-72
2021/12/25 07:34:56;;;;;;;4.57;0.80;;;-4.80;99.90;;;;;;4974180;28;283005;-72
2021/12/25 07:37:22;;;;;;;4.20;0.80;;;-4.70;99.90;;;;;;4997254;28;20050;-73
2021/12/25 07:39:48;;;;;;;5.80;1.07;;;-4.80;99.90;;;;;;4972855;28;240746;-71
2021/12/25 07:42:14;;;;;;;6.13;1.00;;;-4.70;99.90;;;;;;4996502;28;20061;-72
2021/12/25 07:44:40;;;;;;;4.77;1.10;;;-4.70;99.90;;;;;;4970046;28;273645;-72
2021/12/25 07:47:10;;;;;;;6.53;1.10;;;-4.70;99.90;;;;;;4983940;28;20057;-73
2021/12/25 07:49:37;;;;;;;10.50;1.85;;;-4.80;99.90;;;;;;4979335;28;20064;-72
2021/12/25 07:52:05;;;;;;;11.33;1.33;;;-4.80;99.90;;;;;;4985837;28;20419;-72
2021/12/25 07:54:31;;;;;;;5.40;0.97;;;-4.80;99.90;;;;;;4978018;28;289321;-72
2021/12/25 07:56:57;;;;;;;5.90;1.00;;;-4.80;99.90;;;;;;4996229;28;20050;-72
2021/12/25 07:59:23;;;;;;;6.77;0.90;;;-4.80;99.90;;;;;;4964829;28;260530;-71
2021/12/25 08:01:49;;;;;;;7.37;0.80;;;-4.80;99.90;;;;;;4997886;28;20053;-72
2021/12/25 08:04:17;;;;;;;5.17;0.87;;;-4.80;99.90;;;;;;4948992;28;253683;-72
2021/12/25 08:06:43;;;;;;;4.83;0.90;;;-4.80;99.90;;;;;;4973631;28;20050;-73
2021/12/25 08:09:10;;;;;;;4.03;0.80;;;-4.80;99.90;;;;;;4973534;28;271880;-71
2021/12/25 08:11:36;;;;;;;7.93;1.10;;;-4.80;99.90;;;;;;4994543;28;20061;-72
2021/12/25 08:14:02;;;;;;;6.50;1.20;;;-4.80;99.90;;;;;;4984498;28;20054;-73
2021/12/25 08:16:29;;;;;;;5.73;1.00;;;-4.80;99.90;;;;;;4987931;28;258115;-72
2021/12/25 08:18:55;;;;;;;5.23;0.77;;;-4.80;99.90;;;;;;4980931;28;20062;-71
2021/12/25 08:21:21;;;;;;;7.43;1.00;;;-4.80;99.90;;;;;;4965464;28;255025;-71
2021/12/25 08:23:49;;;;;;;7.03;0.90;;;-4.70;99.90;;;;;;4998814;28;20050;-71
2021/12/25 08:26:16;;;;;;;6.20;0.90;;;-4.70;99.90;;;;;;4983629;28;255979;-72
2021/12/25 08:28:42;;;;;;;3.43;0.70;;;-4.70;99.90;;;;;;4987169;28;20073;-73
2021/12/25 08:31:08;;;;;;;6.27;0.93;;;-4.70;99.90;;;;;;4961592;28;63928;-73
2021/12/25 08:33:35;;;;;;;6.37;0.90;;;-4.70;99.90;;;;;;4987704;28;20054;-72
2021/12/25 08:36:01;;;;;;;8.50;1.60;;;-4.70;99.90;;;;;;4948718;28;107581;-72
2021/12/25 08:38:27;;;;;;;8.90;2.20;;;-4.70;99.90;;;;;;4986545;28;20065;-73
2021/12/25 08:40:55;;;;;;;6.67;1.40;;;-4.70;99.90;;;;;;4982990;28;265521;-72
2021/12/25 08:43:24;;;;;;;7.70;1.00;;;-4.60;99.90;;;;;;4986486;28;20090;-73
2021/12/25 08:46:02;;;;;;;4.87;1.03;;;-4.60;99.90;;;;;;4975215;28;58890;-73
2021/12/25 08:48:30;;;;;;;8.07;1.83;;;-4.60;99.90;;;;;;4993768;28;20054;-72
2021/12/25 08:51:00;;;;;;;8.30;1.80;;;-4.60;99.90;;;;;;4984274;28;240787;-74
2021/12/25 08:53:28;;;;;;;6.63;1.60;;;-4.60;99.90;;;;;;4966762;28;20116;-72
2021/12/25 08:55:56;;;;;;;8.27;1.77;;;-4.50;99.90;;;;;;4975372;28;20054;-72
2021/12/25 08:58:23;;;;;;;6.77;1.50;;;-4.50;99.90;;;;;;4988231;28;20221;-73
2021/12/25 09:00:55;;;;;;;9.60;1.70;;;-4.50;99.90;;;;;;4968742;28;99134;-72
2021/12/25 09:03:22;;;;;;;9.47;1.70;;;-4.50;99.90;;;;;;4983084;28;20050;-72
2021/12/25 09:05:48;;;;;;;7.13;1.37;;;-4.40;99.90;;;;;;4962711;28;274943;-73
2021/12/25 09:08:15;;;;;;;7.97;2.10;;;-4.40;99.90;;;;;;4990091;28;20058;-71
2021/12/25 09:10:41;;;;;;;9.07;1.77;;;-4.30;99.90;;;;;;4977351;28;264428;-72
2021/12/25 09:13:07;;;;;;;7.70;1.60;;;-4.30;99.90;;;;;;4985587;28;20049;-73
2021/12/25 09:15:33;;;;;;;8.33;1.40;;;-4.30;99.90;;;;;;4974713;28;81091;-73
2021/12/25 09:17:59;;;;;;;7.03;1.70;;;-4.20;99.90;;;;;;4987755;28;21418;-74
2021/12/25 09:20:25;;;;;;;7.93;1.70;;;-4.20;99.90;;;;;;4973044;28;60293;-73
2021/12/25 09:22:52;;;;;;;11.00;1.50;;;-4.20;99.90;;;;;;4984276;28;20042;-73
2021/12/25 09:25:18;;;;;;;7.43;1.40;;;-4.10;99.90;;;;;;4974582;28;264143;-72
2021/12/25 09:27:44;;;;;;;7.00;1.20;;;-4.10;99.90;;;;;;4989638;28;20055;-72
2021/12/25 09:30:12;;;;;;;6.87;1.43;;;-4.00;99.90;;;;;;4976490;28;259740;-72
2021/12/25 09:32:38;;;;;;;9.60;1.70;;;-4.00;99.90;;;;;;4963679;28;20053;-73
2021/12/25 09:35:05;;;;;;;11.13;2.10;;;-4.00;99.90;;;;;;4969134;28;169348;-72
2021/12/25 09:37:32;;;;;;;8.90;1.80;;;-3.90;99.90;;;;;;4980325;28;20058;-71
2021/12/25 09:39:58;;;;;;;10.17;1.53;;;-3.90;99.90;;;;;;4972614;28;282953;-73
2021/12/25 09:42:25;;;;;;;7.67;1.37;;;-3.90;99.90;;;;;;4995396;28;20085;-72
2021/12/25 09:44:52;;;;;;;8.03;1.30;;;-3.80;99.90;;;;;;4967948;28;265183;-73
2021/12/25 09:47:19;;;;;;;8.23;1.67;;;-3.80;99.90;;;;;;4995122;28;20054;-73
2021/12/25 09:49:46;;;;;;;8.27;1.87;;;-3.80;99.90;;;;;;4970627;28;113667;-73
2021/12/25 09:52:13;;;;;;;6.03;1.27;;;-3.80;99.90;;;;;;4978383;28;20380;-72
2021/12/25 09:54:39;;;;;;;8.67;1.83;;;-3.70;99.90;;;;;;4974799;28;271775;-72
2021/12/25 09:57:06;;;;;;;7.05;1.20;;;-3.70;99.90;;;;;;4986636;28;20059;-73
2021/12/25 09:59:32;;;;;;;6.30;1.10;;;-3.60;99.90;;;;;;4952354;28;256229;-72
2021/12/25 10:02:01;;;;;;;5.57;1.00;;;-3.60;99.90;;;;;;4976191;28;20065;-72
2021/12/25 10:04:39;;;;;;;9.17;1.23;;;-3.60;99.90;;;;;;4956612;28;260006;-72
2021/12/25 10:07:25;;;;;;;4.80;1.10;;;-3.50;99.90;;;;;;5031681;22;20070;-75
2021/12/25 10:10:04;;;;;;;5.53;1.03;;;-3.50;99.90;;;;;;4984689;28;274004;-75
2021/12/25 10:12:51;;;;;;;6.30;1.30;;;-3.40;99.90;;;;;;5000301;28;20057;-76
2021/12/25 10:15:25;;;;;;;8.73;1.17;;;-3.40;99.90;;;;;;4984867;28;253731;-74
2021/12/25 10:17:54;;;;;;;5.70;1.27;;;-3.40;99.90;;;;;;4987060;28;20530;-75
2021/12/25 10:20:33;;;;;;;6.10;1.20;;;-3.30;99.90;;;;;;4971097;28;221302;-74
2021/12/25 10:23:00;;;;;;;7.53;1.23;;;-3.30;99.90;;;;;;4971502;28;20053;-75
2021/12/25 10:25:32;;;;;;;7.00;1.47;;;-3.30;99.90;;;;;;4976570;28;234079;-75
2021/12/25 10:28:04;;;;;;;7.40;1.20;;;-3.20;99.90;;;;;;4981475;28;20050;-75
2021/12/25 10:30:31;;;;;;;6.20;1.03;;;-3.20;99.90;;;;;;4969024;28;234201;-75
2021/12/25 10:32:57;;;;;;;4.72;1.02;;;-3.10;99.90;;;;;;4966315;28;20061;-76
2021/12/25 10:35:27;;;;;;;3.67;0.83;;;-3.10;99.90;;;;;;4977483;28;251952;-76
2021/12/25 10:37:56;;;;;;;6.57;1.07;;;-3.00;99.90;;;;;;4976926;28;20054;-76
2021/12/25 10:40:31;;;;;;;5.95;1.35;;;-3.00;99.90;;;;;;4972361;28;59118;-77
2021/12/25 10:43:02;;;;;;;4.83;0.97;;;-3.00;99.90;;;;;;4982492;28;20334;-75
2021/12/25 10:45:31;;;;;;;5.70;1.10;;;-2.90;99.90;;;;;;4968208;28;204434;-76
2021/12/25 10:48:04;;;;;;;10.27;1.27;;;-2.90;99.90;;;;;;4989984;28;20050;-77
2021/12/25 10:50:36;;;;;;;6.10;0.98;;;-2.80;99.90;;;;;;4968194;28;218700;-76
2021/12/25 10:53:10;;;;;;;7.28;0.90;;;-2.80;99.90;;;;;;4980802;28;20466;-76
2021/12/25 10:55:37;;;;;;;7.57;0.90;;;-2.80;99.90;;;;;;4971110;28;277499;-74
2021/12/25 10:58:18;;;;;;;4.32;0.90;;;-2.80;99.90;;;;;;4982397;28;20057;-75
2021/12/25 11:00:49;;;;;;;5.90;0.98;;;-2.80;99.90;;;;;;4970563;28;144070;-75
2021/12/25 11:03:16;;;;;;;5.25;0.95;;;-2.70;99.90;;;;;;4982292;28;20073;-74
2021/12/25 11:05:47;;;;;;;3.72;0.90;;;-2.70;99.90;;;;;;4943927;28;161339;-75
2021/12/25 11:08:19;;;;;;;4.45;0.98;;;-2.70;99.90;;;;;;4982557;28;20042;-75
2021/12/25 11:10:48;;;;;;;7.28;1.00;;;-2.60;99.90;;;;;;4963328;28;75058;-75
2021/12/25 11:13:35;;;;;;;4.75;0.82;;;-2.60;99.90;;;;;;4979790;28;20101;-76
2021/12/25 11:16:31;;;;;;;6.72;1.10;;;-2.60;99.90;;;;;;4966687;28;66123;-74
2021/12/25 11:19:15;;;;;;;4.65;0.82;;;-2.60;99.90;;;;;;5000315;28;20058;-75
2021/12/25 11:21:44;;;;;;;4.25;0.98;;;-2.50;99.90;;;;;;4938358;28;20043;-74
2021/12/25 11:24:13;;;;;;;6.38;1.00;;;-2.60;99.90;;;;;;4950651;28;254088;-74
2021/12/25 11:26:41;;;;;;;5.60;0.90;;;-2.50;99.90;;;;;;4959002;28;20054;-74
2021/12/25 11:29:11;;;;;;;7.07;1.05;;;-2.50;99.90;;;;;;4963368;28;20507;-73
2021/12/25 11:31:38;;;;;;;5.78;0.90;;;-2.40;99.90;;;;;;4975044;28;20054;-73
2021/12/25 11:34:05;;;;;;;7.55;1.50;;;-2.40;99.90;;;;;;4981752;28;20499;-75
2021/12/25 11:36:32;;;;;;;8.98;1.40;;;-2.40;99.90;;;;;;4982412;28;257902;-75
2021/12/25 11:38:58;;;;;;;6.60;1.10;;;-2.40;99.90;;;;;;4999584;28;21543;-73
2021/12/25 11:41:31;;;;;;;8.52;1.15;;;-2.40;99.90;;;;;;4983213;28;258857;-74
2021/12/25 11:43:57;;;;;;;7.45;1.20;;;-2.40;99.90;;;;;;4981307;28;20054;-73
2021/12/25 11:46:40;;;;;;;5.45;1.00;;;-2.40;99.90;;;;;;4979647;28;267001;-73
2021/12/25 11:49:14;;;;;;;6.22;1.05;;;-2.40;99.90;;;;;;4984098;28;20061;-73
2021/12/25 11:51:43;;;;;;;7.13;1.05;;;-2.30;99.90;;;;;;4939726;28;20046;-73
2021/12/25 11:54:56;;;;;;;5.58;1.00;;;-2.30;99.90;;;;;;4962050;28;267012;-74
2021/12/25 11:59:48;;;;;;;7.72;1.00;;;-2.30;99.90;;;;;;4943302;28;260435;-73
2021/12/25 12:02:38;;;;;;;5.57;0.82;;;-2.20;99.90;;;;;;4959707;28;20047;-73
2021/12/25 12:05:29;;;;;;;6.65;1.08;;;-2.30;99.90;;;;;;4941392;28;183642;-73
2021/12/25 12:08:16;;;;;;;6.65;1.10;;;-2.30;99.90;;;;;;4966575;28;20057;-73
2021/12/25 12:10:52;;;;;;;9.10;1.20;;;-2.20;99.90;;;;;;4945025;28;47705;-73
2021/12/25 12:13:25;;;;;;;6.40;1.00;;;-2.20;99.90;;;;;;4971087;28;20240;-73
2021/12/25 12:15:54;;;;;;;5.93;1.10;;;-2.30;99.90;;;;;;4975223;28;20054;-74
2021/12/25 12:18:27;;;;;;;8.45;1.10;;;-1.70;99.90;;;;;;4977284;28;20042;-74
2021/12/25 12:21:01;;;;;;;7.15;1.40;;;0.40;99.20;;;;;;4956419;28;270705;-73
2021/12/25 12:23:41;;;;;;;7.72;1.10;;;2.00;97.20;;;;;;4965704;28;20042;-75
2021/12/25 12:26:11;;;;;;;9.48;1.38;;;3.30;94.90;;;;;;4968097;28;147934;-74
2021/12/25 12:28:50;;;;;;;7.88;1.38;;;4.20;92.40;;;;;;4959634;28;20404;-75
2021/12/25 12:31:34;;;;;;;242.68;12.32;;;5.00;91.20;;;;;;4963158;28;252525;-73
2021/12/25 12:34:00;;;;;;;19.58;1.92;;;5.90;92.70;;;;;;4986605;28;20050;-74
2021/12/25 12:36:27;;;;;;;8.98;1.33;;;6.40;90.20;;;;;;4971893;28;85735;-74
2021/12/25 12:39:12;;;;;;;21.35;2.58;;;6.60;88.90;;;;;;4990359;28;20058;-75
2021/12/25 12:41:50;;;;;;;9.75;1.70;;;7.00;90.20;;;;;;4955593;28;20046;-73
2021/12/25 12:44:26;;;;;;;39.58;3.53;;;7.30;89.00;;;;;;4948099;28;258175;-74
2021/12/25 12:46:55;;;;;;;124.13;7.53;;;7.80;89.80;;;;;;4965095;28;20065;-74
2021/12/25 12:49:34;;;;;;;11.35;1.60;;;8.10;89.00;;;;;;4946085;28;257925;-75
2021/12/25 12:52:27;;;;;;;6.25;1.25;;;8.50;88.50;;;;;;4974121;28;20046;-75
2021/12/25 12:54:54;;;;;;;6.60;1.17;;;8.80;84.30;;;;;;4949766;28;251481;-76
2021/12/25 12:57:43;;;;;;;5.70;1.30;;;8.90;86.70;;;;;;4965833;28;20043;-76
2021/12/25 13:00:27;;;;;;;7.40;1.20;;;9.10;82.30;;;;;;4950788;28;275445;-75
2021/12/25 13:02:57;;;;;;;7.68;1.30;;;9.60;85.80;;;;;;4971626;28;20062;-75
2021/12/25 13:05:30;;;;;;;9.60;1.70;;;9.50;83.40;;;;;;4939395;28;275561;-76
2021/12/25 13:07:59;;;;;;;8.65;1.90;;;9.30;79.90;;;;;;4963940;28;20059;-75
2021/12/25 13:10:37;;;;;;;7.55;1.75;;;9.10;75.90;;;;;;4955627;28;87099;-75
2021/12/25 13:13:14;;;;;;;11.38;2.95;;;9.40;80.00;;;;;;4964365;28;20062;-76
2021/12/25 13:15:43;;;;;;;6.63;1.20;;;9.00;73.50;;;;;;4944968;28;242493;-75
2021/12/25 13:18:11;;;;;;;7.63;2.03;;;9.30;78.00;;;;;;4964194;28;20050;-75
2021/12/25 13:20:41;;;;;;;11.65;1.70;;;9.50;75.30;;;;;;4951369;28;118101;-76
2021/12/25 13:23:14;;;;;;;8.75;1.98;;;9.40;75.70;;;;;;4962050;28;20055;-77
2021/12/25 13:25:48;;;;;;;9.30;1.92;;;9.30;75.90;;;;;;4984842;28;51422;-76
2021/12/25 13:28:15;;;;;;;9.27;1.77;;;9.60;76.90;;;;;;4971898;28;20058;-75
2021/12/25 13:30:44;;;;;;;5.57;1.02;;;9.90;74.80;;;;;;4950253;28;174875;-76
2021/12/25 13:33:13;;;;;;;6.45;1.30;;;9.80;71.80;;;;;;4960772;28;20456;-75
2021/12/25 13:35:41;;;;;;;8.10;1.30;;;10.10;73.60;;;;;;4956888;28;36561;-76
2021/12/25 13:38:08;;;;;;;5.63;1.00;;;9.90;66.10;;;;;;4961857;28;20223;-76
2021/12/25 13:40:37;;;;;;;5.13;1.00;;;9.60;67.80;;;;;;4947883;28;230807;-75
2021/12/25 13:43:09;;;;;;;7.90;1.63;;;9.40;68.50;;;;;;4972359;28;20047;-76
2021/12/25 13:45:37;;;;;;;6.53;1.40;;;9.30;69.50;;;;;;4966667;28;50465;-75
2021/12/25 13:48:05;;;;;;;6.47;1.27;;;9.10;66.90;;;;;;4981924;28;20057;-76
2021/12/25 13:50:32;;;;;;;6.72;1.27;;;9.00;67.40;;;;;;4974100;28;20144;-76
2021/12/25 13:52:59;;;;;;;8.23;1.20;;;9.00;68.90;;;;;;4993860;28;20046;-75
2021/12/25 13:55:32;;;;;;;6.68;1.48;;;8.80;67.60;;;;;;4981573;28;166891;-76
2021/12/25 13:58:09;;;;;;;7.20;1.20;;;8.80;66.70;;;;;;4982279;28;20057;-76